Wilmington, OH

11:51 AM EDT on July 29, 2016 (GMT -0400)
2.2 N Wilmington | | Change Station

Elev 1053 ft 39.47 °N, 83.84 °W | Updated 1 minute ago

Overcast
Overcast
79.2 °F
Feels Like 83 °F
N
6.0
Wind Variable Wind from South
Gusts 9.0 mph

Today
High -- | Low -- °F
--% Chance of Precip.
Yesterday
High -- | Low -- °F
Precip. -- in
Pressure 29.93 in
Visibility 8.0 miles
Clouds Overcast 1100 ft
Heat Index 83 °F
Dew Point 74 °F
Humidity 83%
Rainfall 0.00 in
Snow Depth Not available.
6:32 AM 8:50 PM
Waning Crescent, 21% visible
METAR KILN 291454Z AUTO 20004KT 8SM OVC011 25/22 A2996 RMK AO2 SLP135 T02500222 51002
Pressure 29.93 in
Visibility 8.0 miles
Clouds Overcast 1100 ft
Heat Index 83 °F
Dew Point 74 °F
Humidity 83%
Rainfall 0.00 in
Snow Depth Not available.
6:32 AM 8:50 PM
Waning Crescent, 21% visible
METAR KILN 291454Z AUTO 20004KT 8SM OVC011 25/22 A2996 RMK AO2 SLP135 T02500222 51002

10-Day Weather Forecast

Almanac

Astronomy

Jul. 29, 2016 Rise Set
Actual Time
Civil Twilight
Nautical Twilight
Astronomical Twilight
Moon
Length of Visible Light
Length of Day
Tomorrow will be .
, % of the Moon is Illuminated

Today's Extremes

State Highs State Lows

Community

WunderPhotos

Upload Photos

1,928,348 photos uploaded!

WunderBlog® & News

Nearby

Air Quality

  Air Quality AQ Index Pollutant
Not available.

Snow Depth

Station Depth Elevation

Earthquake Activity

City Distance Mag. Time & Date
Minimum magnitude displayed is 2.5.

Coastal Water Temperatures

Place Temperature

Stations

Nearby Weather Stations

Station Location Temp. Windchill Dew Point Humidity Wind Precip. Elev Updated Type
                   

Watches & Warnings

There are currently no watches in effect.